Pregled zadnjih 96 podatkov za postajo Žalec Inštitut (2079)

Čas Temperatura tal (10 cm) (°C)  Temperatura (2 m) (°C)  Sončno sevanje (W/m2)  Smer vetra (3 m) (°)  Relativna zračna vlaga (2 m) (%RH)  Padavine (mm)  Omočenost lista (1,5 m) (U)  Hitrost vetra (3 m) (km/h)  Temp. rosišča (2m) (°C)  Temp. mokrega term. (2m) (°C) 
31.7.2021 21:30 18,6 21,9 0 186 87 0 9 1 19,7 20,4
31.7.2021 21:00 18,7 23,2 0 245 77 0 1 1,5 19 20,4
31.7.2021 20:30 18,8 24,4 5 94 69 0 0 2,8 18,3 20,4
31.7.2021 20:00 18,9 25,4 45 105 65 0 0 3,3 18,4 20,7
31.7.2021 19:30 18,9 26,2 115 92 63 0 0 6,4 18,6 21
31.7.2021 19:00 18,9 26,3 169 106 62 0 0 5,6 18,4 21
31.7.2021 18:30 18,9 27 196 100 58 0 0 7 18 20,9
31.7.2021 18:00 18,8 27,3 313 108 56 0 0 6,4 17,6 20,8
31.7.2021 17:30 18,8 27,4 447 123 55 0 0 5,5 17,6 20,9
31.7.2021 17:00 18,6 26,9 526 138 62 0 0 4,9 19 21,5
31.7.2021 16:30 18,5 26,9 603 148 62 0 0 3,9 19,1 21,6
31.7.2021 16:00 18,4 26,4 672 145 63 0 0 3,9 18,8 21,2
31.7.2021 15:30 18,2 26 727 216 62 0 0 3,8 18,2 20,8
31.7.2021 15:00 18 25,5 778 104 65 0 0 3,2 18,4 20,7
31.7.2021 14:30 17,9 24,1 817 322 68 0 0 3,5 17,9 20
31.7.2021 14:00 17,8 23 837 320 75 0 0 4,8 18,3 19,8
31.7.2021 13:30 17,7 21 882 25 96 0 0 4,5 20,3 20,5
31.7.2021 13:00 17,8 19,3 663 335 100 0 1 4 19,3 19,3
31.7.2021 12:30 17,9 17,4 87 252 100 0,2 10 4,2 17,4 17,4
31.7.2021 12:00 18,1 18,1 12 268 97 10,6 10 9,7 17,6 17,8
31.7.2021 11:30 17,9 25,1 74 31 64 1,2 3 6 17,7 20,2
31.7.2021 11:00 17,8 26,7 579 245 55 0 0 4,5 16,9 20,2
31.7.2021 10:30 17,6 25,8 697 263 59 0 0 6,4 17,2 20,1
31.7.2021 10:00 17,5 25,4 628 247 60 0 0 7,2 17,2 20
31.7.2021 9:30 17,5 24,7 548 300 63 0 0 7,4 17,1 19,7
31.7.2021 9:00 17,4 24,1 465 267 65 0 0 7,7 17,1 19,4
31.7.2021 8:30 17,4 23,2 378 254 69 0 0 8,2 17,1 19,2
31.7.2021 8:00 17,4 22,2 293 260 74 0 1 9 17,4 19
31.7.2021 7:30 17,5 20,9 201 268 83 0 2 7,4 17,8 18,8
31.7.2021 7:00 17,5 20 94 326 86 0 9 4,9 17,6 18,4
31.7.2021 6:30 17,6 19,8 24 310 83 0 10 3,8 16,9 17,9
31.7.2021 6:00 17,7 19,1 5 280 89 0 10 4 17,3 17,9
31.7.2021 5:30 17,8 19,2 0 295 90 0 10 3,7 17,5 18,1
31.7.2021 5:00 17,9 20 0 275 86 0 10 4,4 17,6 18,4
31.7.2021 4:30 18 21 0 8 78 0 6 4,1 16,9 18,3
31.7.2021 4:00 18,1 20,4 0 204 84 0 10 3,5 17,5 18,5
31.7.2021 3:30 18,2 20,6 0 280 80 0 9 3,1 17,1 18,3
31.7.2021 3:00 18,3 21,6 0 321 74 0 3 5,1 16,7 18,4
31.7.2021 2:30 18,4 22 0 307 71 0 2 3,4 16,4 18,4
31.7.2021 2:00 18,5 22,7 0 293 68 0 1 4,7 16,5 18,6
31.7.2021 1:30 18,6 22,7 0 291 69 0 2 5,2 16,8 18,8
31.7.2021 1:00 18,7 23,6 0 281 68 0 1 4,7 17,4 19,5
31.7.2021 0:30 18,8 25,1 0 292 63 0 0 6,7 17,6 20,1
31.7.2021 0:00 18,9 25,2 0 311 65 0 1 4,7 18,1 20,5
30.7.2021 23:30 19 25,7 0 283 63 0 1 2,8 18,2 20,6
30.7.2021 23:00 19,1 26,3 0 313 61 0 0 2,1 18,3 20,9
30.7.2021 22:30 19,2 26,7 0 294 61 0 0 2 18,4 21,1
30.7.2021 22:00 19,2 26,6 0 19 60 0 0 2 18,3 21
30.7.2021 21:30 19,4 27,2 0 207 58 0 0 2,1 18,2 21,1
30.7.2021 21:00 19,5 26,9 0 312 58 0 0 2,2 18,1 21
30.7.2021 20:30 19,6 27,7 5 247 55 0 0 4,7 17,9 21,1
30.7.2021 20:00 19,6 28,2 25 297 54 0 0 6,2 18,1 21,4
30.7.2021 19:30 19,7 28,9 47 276 52 0 0 6,6 18,1 21,6
30.7.2021 19:00 19,8 30,4 74 280 46 0 0 9,2 17,5 21,7
30.7.2021 18:30 19,8 31,8 266 271 43 0 0 10,1 17,5 22,1
30.7.2021 18:00 19,8 32,2 359 283 41 0 0 8,9 17,5 22,2
30.7.2021 17:30 19,8 32,5 447 257 41 0 0 11,4 17,5 22,3
30.7.2021 17:00 19,8 32,7 526 266 40 0 0 9,6 17,6 22,4
30.7.2021 16:30 19,7 32,7 614 234 38 0 0 10,4 16,4 21,8
30.7.2021 16:00 19,6 32,7 690 231 38 0 0 11,3 16,4 21,8
30.7.2021 15:30 19,5 32,2 741 249 43 0 0 9,4 18,1 22,6
30.7.2021 15:00 19,4 32,4 784 277 43 0 0 10,9 18 22,6
30.7.2021 14:30 19,2 31,9 825 257 41 0 0 11 16,9 21,9
30.7.2021 14:00 19,1 31,6 850 282 41 0 0 6,2 16,9 21,7
30.7.2021 13:30 18,8 31,1 866 250 44 0 0 7,3 17,4 21,9
30.7.2021 13:00 18,5 30,8 863 213 46 0 0 4,5 18 22,1
30.7.2021 12:30 18,2 30,4 858 146 54 0 0 4,1 19,9 23,1
30.7.2021 12:00 17,8 29,8 831 54 55 0 0 2,8 19,7 22,8
30.7.2021 11:30 17,6 29,2 797 224 58 0 0 2,8 20,1 22,9
30.7.2021 11:00 17,3 27,9 749 239 61 0 0 3,9 19,7 22,3
30.7.2021 10:30 17,1 27,2 688 184 63 0 0 2,8 19,6 22
30.7.2021 10:00 17 26,1 619 208 67 0 0 2,7 19,5 21,6
30.7.2021 9:30 16,9 25 542 308 71 0 0 3,1 19,3 21,1
30.7.2021 9:00 16,8 23,6 462 13 77 0 0 3 19,3 20,7
30.7.2021 8:30 16,8 22,2 373 249 82 0 3 3,6 19,1 20,1
30.7.2021 8:00 16,7 20,9 284 310 88 0 10 3,2 18,9 19,5
30.7.2021 7:30 16,8 19,7 199 278 93 0 10 2,7 18,5 18,9
30.7.2021 7:00 16,9 18,1 92 275 99 0 10 1,7 18 18
30.7.2021 6:30 16,9 17,4 22 255 100 0 10 1 17,4 17,4
30.7.2021 6:00 17,1 17,1 5 277 100 0 10 1 17,1 17,1
30.7.2021 5:30 17,1 17,2 0 305 100 0 10 1,1 17,2 17,2
30.7.2021 5:00 17,3 17,5 0 235 100 0 10 1,4 17,5 17,6
30.7.2021 4:30 17,4 17,7 0 280 100 0 10 0,5 17,7 17,7
30.7.2021 4:00 17,5 17,8 0 250 100 0 10 0,5 17,7 17,8
30.7.2021 3:30 17,6 18,2 0 161 98 0 10 1,6 18 18,1
30.7.2021 3:00 17,7 18,6 0 267 98 0 10 0,5 18,2 18,4
30.7.2021 2:30 17,9 18,8 0 166 97 0 10 1,2 18,3 18,5
30.7.2021 2:00 18 19,3 0 181 95 0 10 1,7 18,6 18,9
30.7.2021 1:30 18,1 19,7 0 233 94 0 10 2 18,7 19
30.7.2021 1:00 18,3 20,2 0 283 92 0 10 2,3 18,8 19,3
30.7.2021 0:30 18,4 20,4 0 295 92 0 10 2,1 19 19,5
30.7.2021 0:00 18,5 20,8 0 292 90 0 10 2,2 19,1 19,7
29.7.2021 23:30 18,6 21,1 0 257 91 0 10 2,4 19,5 20
29.7.2021 23:00 18,8 21,7 0 250 88 0 10 2,1 19,7 20,4
29.7.2021 22:30 18,9 22,1 0 343 86 0 10 1,7 19,7 20,5
29.7.2021 22:00 19,1 23,1 0 258 81 0 10 1,3 19,7 20,8